Time;durP1;ratioP1;P1;durP2;ratioP2;P2;SDS_P1;SDS_P2;PMS_P1;PMS_P2;Temp;Humidity;BMP_temperature;BMP_pressure;BME280_temperature;BME280_humidity;BME280_pressure;Samples;Min_cycle;Max_cycle;Signal;HPM_P1;HPM_P2
2021/05/26 00:00:12;;;;;;;1.42;1.00;;;9.90;84.80;;;;;;5095141;28;20035;-76
2021/05/26 00:02:37;;;;;;;0.77;0.77;;;9.90;84.80;;;;;;5113038;28;20063;-75
2021/05/26 00:05:04;;;;;;;0.60;0.60;;;9.90;84.80;;;;;;5113264;28;20036;-76
2021/05/26 00:07:30;;;;;;;1.45;0.60;;;9.90;84.70;;;;;;5077810;28;20044;-76
2021/05/26 00:09:56;;;;;;;0.65;0.60;;;9.90;84.70;;;;;;5112755;28;20104;-76
2021/05/26 00:12:22;;;;;;;1.33;0.68;;;10.00;84.70;;;;;;5060363;28;20513;-76
2021/05/26 00:14:47;;;;;;;0.63;0.63;;;9.90;84.50;;;;;;5112996;28;20044;-76
2021/05/26 00:17:13;;;;;;;0.70;0.52;;;9.90;84.40;;;;;;5093871;28;20055;-76
2021/05/26 00:19:42;;;;;;;0.55;0.43;;;9.90;84.40;;;;;;5113412;28;20070;-77
2021/05/26 00:22:08;;;;;;;0.30;0.30;;;9.90;84.30;;;;;;5113218;28;20040;-76
2021/05/26 00:24:34;;;;;;;0.47;0.30;;;9.90;84.30;;;;;;5077972;28;20036;-76
2021/05/26 00:26:59;;;;;;;0.50;0.30;;;9.90;84.30;;;;;;5094734;28;20040;-76
2021/05/26 00:29:25;;;;;;;0.28;0.28;;;9.80;84.30;;;;;;5094709;28;20517;-77
2021/05/26 00:31:51;;;;;;;0.10;0.10;;;9.80;84.40;;;;;;5112737;28;20063;-76
2021/05/26 00:34:16;;;;;;;0.52;0.30;;;9.70;84.50;;;;;;5094794;28;20106;-76
2021/05/26 00:36:42;;;;;;;0.30;0.30;;;9.80;84.60;;;;;;5112795;28;20043;-77
2021/05/26 00:39:08;;;;;;;0.20;0.20;;;9.70;84.60;;;;;;5112739;28;20044;-76
2021/05/26 00:41:34;;;;;;;0.20;0.20;;;9.70;84.60;;;;;;5094416;28;20089;-76
2021/05/26 00:43:59;;;;;;;0.20;0.20;;;9.70;84.60;;;;;;5094445;28;20039;-76
2021/05/26 00:46:25;;;;;;;0.13;0.13;;;9.60;84.60;;;;;;5113055;28;20038;-76
2021/05/26 00:48:52;;;;;;;0.20;0.20;;;9.60;84.60;;;;;;5094480;28;20111;-76
2021/05/26 00:51:18;;;;;;;0.20;0.20;;;9.50;84.60;;;;;;5094294;28;20210;-75
2021/05/26 00:53:44;;;;;;;0.20;0.20;;;9.50;84.70;;;;;;5092947;28;20098;-76
2021/05/26 00:56:10;;;;;;;0.20;0.20;;;9.50;84.70;;;;;;5094404;28;20449;-76
2021/05/26 00:58:36;;;;;;;0.25;0.25;;;9.50;84.70;;;;;;5093952;28;20050;-76
2021/05/26 01:01:03;;;;;;;0.10;0.10;;;9.40;84.70;;;;;;5093390;28;20032;-76
2021/05/26 01:03:28;;;;;;;0.10;0.10;;;9.60;84.90;;;;;;5112982;28;20472;-76
2021/05/26 01:05:55;;;;;;;0.20;0.20;;;9.40;84.70;;;;;;5094267;28;20046;-76
2021/05/26 01:08:21;;;;;;;0.32;0.20;;;9.40;84.70;;;;;;5094601;28;20046;-77
2021/05/26 01:10:46;;;;;;;0.20;0.20;;;9.40;84.80;;;;;;5094784;28;20040;-76
2021/05/26 01:13:13;;;;;;;0.52;0.20;;;9.50;84.90;;;;;;5077310;28;20036;-76
2021/05/26 01:15:40;;;;;;;0.20;0.20;;;9.40;84.80;;;;;;5093916;28;20059;-76
2021/05/26 01:18:23;;;;;;;0.20;0.10;;;9.40;84.80;;;;;;5093862;28;20040;-76
2021/05/26 01:20:49;;;;;;;0.20;0.20;;;9.40;84.90;;;;;;5112181;28;20039;-76
2021/05/26 01:23:17;;;;;;;0.15;0.15;;;9.40;84.80;;;;;;5096740;28;20472;-76
2021/05/26 01:25:45;;;;;;;0.20;0.20;;;9.40;84.90;;;;;;5081303;28;20126;-76
2021/05/26 01:28:11;;;;;;;0.68;0.20;;;9.40;84.90;;;;;;5115850;28;20039;-76
2021/05/26 01:30:37;;;;;;;0.20;0.20;;;9.40;84.90;;;;;;5097664;28;20062;-76
2021/05/26 01:33:02;;;;;;;0.35;0.20;;;9.40;84.90;;;;;;5097377;28;20074;-75
2021/05/26 01:35:28;;;;;;;0.13;0.13;;;9.30;84.90;;;;;;5115640;28;20491;-76
2021/05/26 01:37:54;;;;;;;0.10;0.10;;;9.40;85.00;;;;;;5115856;28;20051;-76
2021/05/26 01:40:20;;;;;;;0.20;0.20;;;9.30;85.10;;;;;;5097426;28;20394;-75
2021/05/26 01:42:46;;;;;;;0.20;0.20;;;9.40;85.20;;;;;;5080578;28;20040;-75
2021/05/26 01:45:13;;;;;;;0.10;0.10;;;9.30;85.10;;;;;;5080198;28;20431;-75
2021/05/26 01:47:39;;;;;;;0.20;0.20;;;9.30;85.30;;;;;;5115132;28;20067;-75
2021/05/26 01:50:06;;;;;;;0.45;0.30;;;9.30;85.30;;;;;;5115194;28;20502;-76
2021/05/26 01:52:32;;;;;;;0.15;0.15;;;9.20;85.30;;;;;;5115215;28;20483;-75
2021/05/26 01:54:58;;;;;;;0.10;0.10;;;9.30;85.50;;;;;;5097378;28;20100;-76
2021/05/26 01:57:24;;;;;;;0.20;0.20;;;9.20;85.50;;;;;;5079877;28;20173;-75
2021/05/26 01:59:49;;;;;;;0.10;0.10;;;9.30;85.60;;;;;;5095512;28;20040;-76
2021/05/26 02:02:15;;;;;;;0.25;0.25;;;9.30;85.60;;;;;;5096760;28;20036;-75
2021/05/26 02:04:41;;;;;;;0.17;0.17;;;9.20;85.60;;;;;;5115370;28;20070;-76
2021/05/26 02:07:11;;;;;;;0.20;0.20;;;9.20;85.70;;;;;;5096717;28;20039;-76
2021/05/26 02:09:38;;;;;;;0.20;0.20;;;9.20;85.70;;;;;;5080062;28;20039;-76
2021/05/26 02:14:41;;;;;;;0.20;0.20;;;9.20;85.80;;;;;;5114295;28;20039;-76
2021/05/26 02:17:07;;;;;;;0.20;0.20;;;9.20;85.80;;;;;;5114780;28;20027;-76
2021/05/26 02:19:33;;;;;;;0.20;0.20;;;9.20;85.80;;;;;;5079990;28;20028;-76
2021/05/26 02:21:58;;;;;;;0.30;0.30;;;9.20;85.80;;;;;;5096548;28;20517;-75
2021/05/26 02:24:24;;;;;;;0.20;0.20;;;9.20;85.80;;;;;;5079629;28;20399;-75
2021/05/26 02:26:50;;;;;;;0.28;0.20;;;9.30;85.90;;;;;;5094821;28;20047;-75
2021/05/26 02:29:16;;;;;;;0.20;0.20;;;9.30;85.90;;;;;;5096469;28;20039;-76
2021/05/26 02:31:41;;;;;;;0.20;0.20;;;9.20;85.90;;;;;;5095719;28;20081;-76
2021/05/26 02:34:07;;;;;;;0.20;0.20;;;9.30;85.90;;;;;;5095136;28;20540;-76
2021/05/26 02:36:33;;;;;;;0.13;0.10;;;9.30;86.00;;;;;;5114571;28;20046;-76
2021/05/26 02:38:58;;;;;;;0.30;0.30;;;9.30;86.00;;;;;;5114305;28;20044;-76
2021/05/26 02:41:24;;;;;;;0.35;0.25;;;9.40;86.00;;;;;;5096231;28;20043;-76
2021/05/26 02:43:50;;;;;;;0.20;0.20;;;9.40;85.90;;;;;;5094469;28;20063;-76
2021/05/26 02:46:16;;;;;;;0.20;0.20;;;9.40;85.90;;;;;;5079309;28;20063;-76
2021/05/26 02:48:41;;;;;;;0.35;0.20;;;9.40;85.90;;;;;;5096043;28;20051;-76
2021/05/26 02:51:07;;;;;;;0.10;0.10;;;9.40;85.90;;;;;;5114446;28;20036;-76
2021/05/26 02:53:33;;;;;;;0.13;0.13;;;9.40;85.90;;;;;;5096068;28;20044;-76
2021/05/26 02:55:58;;;;;;;0.20;0.20;;;9.50;86.00;;;;;;5096020;28;20481;-76
2021/05/26 02:58:24;;;;;;;0.10;0.10;;;9.50;86.00;;;;;;5113977;28;20067;-76
2021/05/26 03:00:50;;;;;;;0.20;0.20;;;9.50;86.00;;;;;;5096118;28;20044;-76
2021/05/26 03:03:16;;;;;;;0.20;0.20;;;9.50;85.90;;;;;;5095231;28;20089;-76
2021/05/26 03:05:41;;;;;;;0.30;0.30;;;9.50;85.90;;;;;;5114077;28;20508;-76
2021/05/26 03:08:07;;;;;;;0.20;0.20;;;9.50;86.00;;;;;;5078831;28;20059;-76
2021/05/26 03:10:33;;;;;;;0.10;0.10;;;9.40;86.10;;;;;;5114434;28;20096;-76
2021/05/26 03:12:59;;;;;;;0.65;0.30;;;9.50;86.20;;;;;;5113876;28;20031;-76
2021/05/26 03:15:24;;;;;;;0.22;0.20;;;9.50;86.10;;;;;;5078796;28;20414;-76
2021/05/26 03:17:50;;;;;;;0.20;0.20;;;9.50;86.10;;;;;;5079157;28;20103;-76
2021/05/26 03:20:17;;;;;;;0.30;0.30;;;9.50;86.20;;;;;;5078708;28;20177;-76
2021/05/26 03:22:43;;;;;;;0.20;0.20;;;9.50;86.20;;;;;;5095983;28;20074;-75
2021/05/26 03:25:12;;;;;;;0.40;0.40;;;9.50;86.20;;;;;;5096239;28;20419;-76
2021/05/26 03:27:39;;;;;;;0.30;0.30;;;9.50;86.30;;;;;;5095370;28;20043;-76
2021/05/26 03:30:14;;;;;;;0.15;0.15;;;9.50;86.80;;;;;;5114252;28;20032;-76
2021/05/26 03:32:41;;;;;;;0.30;0.30;;;9.50;86.20;;;;;;5078853;28;20487;-75
2021/05/26 03:35:08;;;;;;;0.50;0.40;;;9.50;86.20;;;;;;5114026;28;20047;-76
2021/05/26 03:37:34;;;;;;;0.70;0.45;;;9.60;86.30;;;;;;5076473;28;20048;-76
2021/05/26 03:40:00;;;;;;;0.30;0.30;;;9.60;86.30;;;;;;5094023;28;20032;-76
2021/05/26 03:42:25;;;;;;;0.30;0.30;;;9.60;86.20;;;;;;5093492;28;20101;-76
2021/05/26 03:44:52;;;;;;;0.30;0.30;;;9.60;86.20;;;;;;5094716;28;20032;-75
2021/05/26 03:47:18;;;;;;;0.73;0.32;;;9.60;86.20;;;;;;5095204;28;20490;-76
2021/05/26 03:49:44;;;;;;;0.50;0.50;;;9.60;86.30;;;;;;5093832;28;20131;-76
2021/05/26 03:52:11;;;;;;;0.50;0.50;;;9.60;86.30;;;;;;5113959;28;20503;-75
2021/05/26 03:54:37;;;;;;;1.00;0.50;;;9.60;86.30;;;;;;5078340;28;20048;-75
2021/05/26 03:57:04;;;;;;;0.30;0.30;;;9.60;86.40;;;;;;5095452;28;20088;-76
2021/05/26 03:59:30;;;;;;;0.63;0.60;;;9.60;86.30;;;;;;5095063;28;20429;-75
2021/05/26 04:01:56;;;;;;;0.43;0.43;;;9.70;86.40;;;;;;5113888;28;20044;-75
2021/05/26 04:04:22;;;;;;;0.50;0.50;;;9.60;86.30;;;;;;5113349;28;20039;-76
2021/05/26 04:06:47;;;;;;;0.60;0.60;;;9.70;86.40;;;;;;5095243;28;20469;-75
2021/05/26 04:09:13;;;;;;;1.35;0.70;;;9.70;86.40;;;;;;5078279;28;20071;-76
2021/05/26 04:11:39;;;;;;;0.50;0.50;;;9.70;86.40;;;;;;5113700;28;20536;-75
2021/05/26 04:14:05;;;;;;;0.75;0.68;;;9.70;86.40;;;;;;5113006;28;20410;-75
2021/05/26 04:16:31;;;;;;;0.47;0.40;;;9.70;86.40;;;;;;5113092;28;20049;-76
2021/05/26 04:18:56;;;;;;;0.60;0.50;;;9.80;86.50;;;;;;5094723;28;20036;-76
2021/05/26 04:21:22;;;;;;;1.38;0.63;;;9.80;86.40;;;;;;5095153;28;20050;-76
2021/05/26 04:23:48;;;;;;;0.93;0.68;;;9.70;86.30;;;;;;5077811;28;20042;-76
2021/05/26 04:26:14;;;;;;;0.57;0.57;;;9.80;86.40;;;;;;5112928;28;20035;-75
2021/05/26 04:28:44;;;;;;;0.60;0.60;;;9.70;86.30;;;;;;5094243;28;20097;-75
2021/05/26 04:31:12;;;;;;;1.77;0.90;;;9.80;86.30;;;;;;5113401;28;20036;-75
2021/05/26 04:33:38;;;;;;;0.95;0.70;;;9.80;86.20;;;;;;5112740;28;20039;-76
2021/05/26 04:36:04;;;;;;;0.65;0.65;;;9.80;86.30;;;;;;5094593;28;20035;-75
2021/05/26 04:38:30;;;;;;;2.22;0.73;;;9.80;86.30;;;;;;5112521;28;20052;-76
2021/05/26 04:40:56;;;;;;;1.63;0.60;;;9.70;86.20;;;;;;5094044;28;20095;-75
2021/05/26 04:43:21;;;;;;;0.90;0.60;;;9.80;86.30;;;;;;5112579;28;20043;-75
2021/05/26 04:45:47;;;;;;;0.73;0.50;;;9.80;86.30;;;;;;5077494;28;20047;-75
2021/05/26 04:48:13;;;;;;;0.82;0.55;;;9.90;86.40;;;;;;5112947;28;20040;-75
2021/05/26 04:50:39;;;;;;;0.82;0.70;;;9.80;86.20;;;;;;5094840;28;20039;-76
2021/05/26 04:53:06;;;;;;;1.52;0.60;;;9.90;86.30;;;;;;5092965;28;20043;-75
2021/05/26 04:55:31;;;;;;;0.65;0.40;;;9.90;86.20;;;;;;5094910;28;20108;-75
2021/05/26 04:58:07;;;;;;;1.08;0.50;;;9.90;86.30;;;;;;5096302;28;20483;-76
2021/05/26 05:00:33;;;;;;;0.63;0.63;;;9.80;86.20;;;;;;5097927;28;20047;-75
2021/05/26 05:02:59;;;;;;;0.73;0.70;;;9.90;86.20;;;;;;5116011;28;20399;-75
2021/05/26 05:05:31;;;;;;;0.93;0.50;;;9.90;86.20;;;;;;5116033;28;20043;-75
2021/05/26 05:07:57;;;;;;;1.05;0.50;;;9.90;86.20;;;;;;5116018;28;20514;-75
2021/05/26 05:10:22;;;;;;;1.48;0.60;;;9.90;86.20;;;;;;5097868;28;20039;-75
2021/05/26 05:12:48;;;;;;;1.05;0.45;;;9.90;86.20;;;;;;5097832;28;20040;-75
2021/05/26 05:15:14;;;;;;;0.40;0.38;;;10.00;86.30;;;;;;5080849;28;20043;-75
2021/05/26 05:17:40;;;;;;;0.80;0.30;;;9.90;86.20;;;;;;5115739;28;20115;-75
2021/05/26 05:20:06;;;;;;;1.23;0.40;;;10.00;86.30;;;;;;5116288;28;20041;-75
2021/05/26 05:22:32;;;;;;;0.55;0.50;;;10.00;86.30;;;;;;5116311;28;20124;-75
2021/05/26 05:24:57;;;;;;;0.90;0.30;;;9.90;86.30;;;;;;5116267;28;20421;-75
2021/05/26 05:27:23;;;;;;;0.50;0.45;;;9.90;86.40;;;;;;5096177;28;20039;-75
2021/05/26 05:29:49;;;;;;;0.40;0.35;;;10.00;86.50;;;;;;5097618;28;20047;-76
2021/05/26 05:32:15;;;;;;;0.25;0.20;;;9.90;86.40;;;;;;5115691;28;20047;-75
2021/05/26 05:34:42;;;;;;;0.57;0.40;;;10.10;86.40;;;;;;5096332;28;20601;-75
2021/05/26 05:37:09;;;;;;;0.43;0.40;;;10.10;86.30;;;;;;5115947;28;20044;-75
2021/05/26 05:39:35;;;;;;;1.05;0.50;;;10.10;86.20;;;;;;5114102;28;20050;-75
2021/05/26 05:42:00;;;;;;;0.88;0.50;;;10.10;86.20;;;;;;5081127;28;20136;-75
2021/05/26 05:44:26;;;;;;;0.82;0.50;;;10.20;86.20;;;;;;5080467;28;20031;-75
2021/05/26 05:46:52;;;;;;;0.30;0.30;;;10.20;86.20;;;;;;5115616;28;20066;-75
2021/05/26 05:49:17;;;;;;;0.52;0.52;;;10.20;86.20;;;;;;5116168;28;20055;-75
2021/05/26 05:51:43;;;;;;;0.55;0.50;;;10.20;86.20;;;;;;5115872;28;20036;-76
2021/05/26 05:54:09;;;;;;;0.68;0.57;;;10.10;86.20;;;;;;5097151;28;20105;-75
2021/05/26 05:56:34;;;;;;;0.73;0.35;;;10.20;86.20;;;;;;5115095;28;20380;-75
2021/05/26 05:59:00;;;;;;;0.75;0.40;;;10.20;86.20;;;;;;5079902;28;20051;-75
2021/05/26 06:01:26;;;;;;;0.50;0.50;;;10.30;86.30;;;;;;5114979;28;20036;-75
2021/05/26 06:03:51;;;;;;;0.40;0.40;;;10.20;86.20;;;;;;5115200;28;20035;-75
2021/05/26 06:06:17;;;;;;;1.15;0.60;;;10.20;86.20;;;;;;5115218;28;20039;-76
2021/05/26 06:08:43;;;;;;;1.10;0.70;;;10.20;86.20;;;;;;5114714;28;20130;-76
2021/05/26 06:11:09;;;;;;;1.08;0.52;;;10.20;86.20;;;;;;5096541;28;20039;-76
2021/05/26 06:13:34;;;;;;;0.90;0.65;;;10.20;86.20;;;;;;5114980;28;20460;-76
2021/05/26 06:16:00;;;;;;;0.82;0.57;;;10.20;86.20;;;;;;5096494;28;20036;-75
2021/05/26 06:18:26;;;;;;;1.58;0.77;;;10.20;86.20;;;;;;5096459;28;20127;-75
2021/05/26 06:20:52;;;;;;;1.08;0.70;;;10.20;86.10;;;;;;5096913;28;20039;-75
2021/05/26 06:23:17;;;;;;;0.98;0.80;;;10.20;86.10;;;;;;5114742;28;20062;-75
2021/05/26 06:25:43;;;;;;;1.00;0.68;;;10.20;86.10;;;;;;5079714;28;20035;-76
2021/05/26 06:28:09;;;;;;;0.55;0.50;;;10.20;86.10;;;;;;5115021;28;20122;-75
2021/05/26 06:30:35;;;;;;;1.05;0.68;;;10.20;86.10;;;;;;5080208;28;21076;-75
2021/05/26 06:33:00;;;;;;;0.82;0.60;;;10.30;86.10;;;;;;5114667;28;20039;-75
2021/05/26 06:35:26;;;;;;;1.65;0.60;;;10.30;86.00;;;;;;5097030;28;20059;-76
2021/05/26 06:37:52;;;;;;;0.80;0.65;;;10.30;86.10;;;;;;5095774;28;20047;-75
2021/05/26 06:40:17;;;;;;;0.68;0.57;;;10.30;86.10;;;;;;5095282;28;20139;-76
2021/05/26 06:42:43;;;;;;;0.70;0.70;;;10.30;86.10;;;;;;5114955;28;20027;-76
2021/05/26 06:45:10;;;;;;;0.55;0.55;;;10.30;86.10;;;;;;5095918;28;20376;-75
2021/05/26 06:47:35;;;;;;;0.65;0.60;;;10.30;86.20;;;;;;5062812;28;20497;-75
2021/05/26 06:50:02;;;;;;;0.80;0.50;;;10.30;86.20;;;;;;5114376;28;20067;-76
2021/05/26 06:52:27;;;;;;;0.60;0.60;;;10.30;86.20;;;;;;5079279;28;20402;-76
2021/05/26 06:54:53;;;;;;;0.77;0.63;;;10.40;86.30;;;;;;5114742;28;20046;-76
2021/05/26 06:57:19;;;;;;;1.40;0.75;;;10.40;86.10;;;;;;5079172;28;20036;-78
2021/05/26 06:59:45;;;;;;;1.02;0.90;;;10.60;85.90;;;;;;5114444;28;20145;-76
2021/05/26 07:02:11;;;;;;;1.55;0.90;;;10.60;85.50;;;;;;5062481;28;20493;-77
2021/05/26 07:04:37;;;;;;;1.48;0.90;;;10.70;85.50;;;;;;5096432;28;20035;-75
2021/05/26 07:07:02;;;;;;;1.35;0.90;;;10.80;85.40;;;;;;5114681;28;20028;-75
2021/05/26 07:09:28;;;;;;;0.98;0.82;;;10.90;85.30;;;;;;5078921;28;20049;-76
2021/05/26 07:11:54;;;;;;;0.80;0.73;;;10.90;85.10;;;;;;5095082;28;20086;-75
2021/05/26 07:14:19;;;;;;;0.82;0.80;;;11.00;85.00;;;;;;5095027;28;20044;-76
2021/05/26 07:16:45;;;;;;;0.82;0.80;;;11.00;84.90;;;;;;5093654;28;20069;-76
2021/05/26 07:19:11;;;;;;;1.10;0.80;;;11.10;84.80;;;;;;5078766;28;20047;-76
2021/05/26 07:21:37;;;;;;;0.88;0.70;;;11.20;84.80;;;;;;5078769;28;20123;-77
2021/05/26 07:24:03;;;;;;;0.93;0.52;;;11.20;84.80;;;;;;5093955;28;20086;-77
2021/05/26 07:26:29;;;;;;;0.93;0.73;;;11.30;84.80;;;;;;5113737;28;20082;-77
2021/05/26 07:28:54;;;;;;;1.02;0.90;;;11.30;84.70;;;;;;5113794;28;20490;-77
2021/05/26 07:31:20;;;;;;;1.70;0.93;;;11.30;84.70;;;;;;5078861;28;20078;-77
2021/05/26 07:33:46;;;;;;;1.00;0.80;;;11.40;84.70;;;;;;5096262;28;20043;-77
2021/05/26 07:36:13;;;;;;;1.17;1.00;;;11.40;85.30;;;;;;5078759;28;20051;-76
2021/05/26 07:38:39;;;;;;;1.25;1.00;;;11.40;84.60;;;;;;5078553;28;20122;-76
2021/05/26 07:41:06;;;;;;;0.98;0.90;;;11.50;84.70;;;;;;5114342;28;20039;-76
2021/05/26 07:43:33;;;;;;;0.65;0.65;;;11.60;84.60;;;;;;5113663;28;20040;-76
2021/05/26 07:46:00;;;;;;;1.48;0.88;;;11.70;84.50;;;;;;5079118;28;20038;-77
2021/05/26 07:48:26;;;;;;;1.23;1.00;;;11.60;84.30;;;;;;5095325;28;20071;-77
2021/05/26 07:50:52;;;;;;;1.73;1.15;;;11.70;84.20;;;;;;5095423;28;20112;-76
2021/05/26 07:53:18;;;;;;;1.60;1.10;;;11.80;84.30;;;;;;5095099;28;20101;-77
2021/05/26 07:55:43;;;;;;;1.42;1.08;;;11.80;84.20;;;;;;5113922;28;20051;-76
2021/05/26 07:58:09;;;;;;;2.00;1.05;;;11.90;84.10;;;;;;5093730;28;20407;-78
2021/05/26 08:00:35;;;;;;;1.80;1.10;;;12.00;84.00;;;;;;5113193;28;20031;-77
2021/05/26 08:03:00;;;;;;;2.10;0.95;;;12.00;83.90;;;;;;5095448;28;20040;-77
2021/05/26 08:05:26;;;;;;;1.00;0.90;;;12.10;83.80;;;;;;5095605;28;20131;-77
2021/05/26 08:07:52;;;;;;;3.05;1.40;;;12.20;83.70;;;;;;5113115;28;20031;-78
2021/05/26 08:10:18;;;;;;;1.20;1.10;;;12.30;83.50;;;;;;5095202;28;20048;-77
2021/05/26 08:12:43;;;;;;;1.70;1.17;;;12.30;83.50;;;;;;5097131;28;20042;-77
2021/05/26 08:15:10;;;;;;;1.98;1.10;;;12.30;83.50;;;;;;5113677;28;20054;-77
2021/05/26 08:17:37;;;;;;;1.38;1.10;;;12.40;83.50;;;;;;5094883;28;20040;-77
2021/05/26 08:20:05;;;;;;;0.90;0.90;;;12.50;83.40;;;;;;5113718;28;20043;-77
2021/05/26 08:22:32;;;;;;;0.88;0.85;;;12.60;83.30;;;;;;5094713;28;20043;-77
2021/05/26 08:24:58;;;;;;;0.75;0.75;;;12.70;83.10;;;;;;5094758;28;20039;-77
2021/05/26 08:27:25;;;;;;;1.08;0.95;;;12.70;83.00;;;;;;5113435;28;20043;-77
2021/05/26 08:29:54;;;;;;;1.58;1.10;;;12.80;82.90;;;;;;5094644;28;20036;-77
2021/05/26 08:32:20;;;;;;;1.08;0.95;;;12.80;83.00;;;;;;5111750;28;20509;-77
2021/05/26 08:34:48;;;;;;;1.08;0.95;;;12.80;82.90;;;;;;5112905;28;20479;-78
2021/05/26 08:37:14;;;;;;;0.73;0.70;;;12.80;83.00;;;;;;5095426;28;20530;-78
2021/05/26 08:39:39;;;;;;;1.75;1.27;;;12.90;83.10;;;;;;5092636;28;20151;-78
2021/05/26 08:42:05;;;;;;;1.05;0.80;;;13.00;82.90;;;;;;5077566;28;20096;-78
2021/05/26 08:44:31;;;;;;;1.92;1.15;;;13.00;82.80;;;;;;5077549;28;20035;-78
2021/05/26 08:46:58;;;;;;;0.98;0.90;;;13.00;82.80;;;;;;5093017;28;20093;-76
2021/05/26 08:49:25;;;;;;;1.30;1.10;;;13.10;82.90;;;;;;5112689;28;20043;-76
2021/05/26 08:51:51;;;;;;;1.10;1.00;;;13.20;82.70;;;;;;5113124;28;20046;-76
2021/05/26 08:54:17;;;;;;;1.70;1.13;;;13.20;82.40;;;;;;5112705;28;20119;-78
2021/05/26 08:56:44;;;;;;;1.80;1.33;;;13.30;82.40;;;;;;5094764;28;20062;-78
2021/05/26 08:59:13;;;;;;;2.15;1.30;;;13.20;82.50;;;;;;5094384;28;20040;-77
2021/05/26 09:01:49;;;;;;;1.38;1.10;;;13.30;82.60;;;;;;5075659;28;20063;-77
2021/05/26 09:04:30;;;;;;;1.30;1.20;;;13.60;82.30;;;;;;5061306;28;20078;-76
2021/05/26 09:07:10;;;;;;;1.17;1.08;;;13.70;82.10;;;;;;5113004;28;20487;-79
2021/05/26 09:09:47;;;;;;;1.10;0.93;;;13.80;81.80;;;;;;5078122;28;20542;-75
2021/05/26 09:12:14;;;;;;;1.55;1.00;;;13.90;81.50;;;;;;5113004;28;20336;-77
2021/05/26 09:14:40;;;;;;;1.73;1.00;;;13.90;81.50;;;;;;5112941;28;20123;-75
2021/05/26 09:17:11;;;;;;;1.77;1.33;;;14.00;81.40;;;;;;5112688;28;20169;-76
2021/05/26 09:19:37;;;;;;;1.97;1.20;;;14.20;81.30;;;;;;5112705;28;20914;-77
2021/05/26 09:22:11;;;;;;;1.40;0.90;;;14.30;81.00;;;;;;5094557;28;20044;-76
2021/05/26 09:24:37;;;;;;;1.98;1.08;;;14.50;80.90;;;;;;5112402;28;20487;-77
2021/05/26 09:27:06;;;;;;;1.25;1.15;;;14.70;80.30;;;;;;5076876;28;20038;-78
2021/05/26 09:29:34;;;;;;;1.30;1.17;;;14.90;80.00;;;;;;5112151;28;20410;-76
2021/05/26 09:32:21;;;;;;;1.35;1.10;;;15.00;79.50;;;;;;5077255;28;20143;-77
2021/05/26 09:34:49;;;;;;;1.75;1.10;;;14.90;79.60;;;;;;5112360;28;20490;-76
2021/05/26 09:37:21;;;;;;;1.10;1.00;;;14.80;80.10;;;;;;5112535;28;20498;-75
2021/05/26 09:39:54;;;;;;;1.55;1.30;;;15.00;80.20;;;;;;5112043;28;20050;-79
2021/05/26 09:42:24;;;;;;;1.67;1.10;;;15.00;79.80;;;;;;5077283;28;20046;-77
2021/05/26 09:45:20;;;;;;;1.90;1.20;;;15.10;80.00;;;;;;5097112;28;20043;-77
2021/05/26 09:47:48;;;;;;;2.95;1.20;;;15.30;79.70;;;;;;5115442;28;20042;-77
2021/05/26 09:50:25;;;;;;;1.27;1.13;;;15.50;79.40;;;;;;5097126;28;20037;-78
2021/05/26 09:53:02;;;;;;;2.05;1.20;;;15.80;79.00;;;;;;5098415;28;20044;-77
2021/05/26 09:55:38;;;;;;;1.10;1.00;;;15.70;78.20;;;;;;5081535;28;20487;-78
2021/05/26 09:58:06;;;;;;;1.35;0.90;;;15.60;78.70;;;;;;5097936;28;20044;-78
2021/05/26 10:00:33;;;;;;;2.33;1.27;;;15.60;78.80;;;;;;5115754;28;20040;-79
2021/05/26 10:02:59;;;;;;;1.70;1.10;;;15.50;78.90;;;;;;5096956;28;20054;-77
2021/05/26 10:05:25;;;;;;;1.20;1.10;;;15.50;78.90;;;;;;5063352;28;20415;-75
2021/05/26 10:07:57;;;;;;;1.80;0.98;;;15.40;79.10;;;;;;5097126;28;20054;-75
2021/05/26 10:10:24;;;;;;;2.45;1.65;;;15.50;79.50;;;;;;5097096;28;20067;-76
2021/05/26 10:12:54;;;;;;;2.92;1.58;;;15.70;78.70;;;;;;5096861;28;20046;-75
2021/05/26 10:15:22;;;;;;;1.95;1.17;;;15.70;78.30;;;;;;5114973;28;20047;-75
2021/05/26 10:17:51;;;;;;;1.35;1.20;;;15.70;78.60;;;;;;5115053;28;20043;-75
2021/05/26 10:20:20;;;;;;;1.90;1.40;;;15.80;78.30;;;;;;5096906;28;20040;-75
2021/05/26 10:22:48;;;;;;;1.98;1.10;;;15.70;78.20;;;;;;5097056;28;20486;-76
2021/05/26 10:25:15;;;;;;;1.38;1.20;;;15.70;78.60;;;;;;5114745;28;20118;-75
2021/05/26 10:27:47;;;;;;;1.88;1.20;;;15.70;78.60;;;;;;5114867;28;20441;-75
2021/05/26 10:30:14;;;;;;;1.38;1.23;;;15.90;78.30;;;;;;5114767;28;20100;-76
2021/05/26 10:33:07;;;;;;;1.15;1.00;;;16.10;77.70;;;;;;5114636;28;20048;-74
2021/05/26 10:35:57;;;;;;;0.88;0.82;;;16.00;77.30;;;;;;5115069;28;20425;-73
2021/05/26 10:38:24;;;;;;;0.60;0.60;;;15.30;77.80;;;;;;5114826;28;20043;-73
2021/05/26 10:40:51;;;;;;;0.40;0.40;;;14.70;78.90;;;;;;5097070;28;20043;-74
2021/05/26 10:43:27;;;;;;;0.50;0.50;;;14.10;80.20;;;;;;5096223;28;20050;-74
2021/05/26 10:45:55;;;;;;;0.93;0.57;;;13.70;81.40;;;;;;5079714;28;20067;-74
2021/05/26 10:48:52;;;;;;;0.45;0.45;;;13.40;81.90;;;;;;5096961;28;20502;-74
2021/05/26 10:51:17;;;;;;;0.30;0.30;;;13.00;82.50;;;;;;5096809;28;20070;-74
2021/05/26 10:53:45;;;;;;;0.35;0.35;;;12.80;83.10;;;;;;5095934;28;20040;-74
2021/05/26 10:56:35;;;;;;;1.08;0.32;;;12.70;83.30;;;;;;5114040;28;20127;-75
2021/05/26 10:59:14;;;;;;;0.52;0.40;;;12.50;83.40;;;;;;5114486;28;20086;-74
2021/05/26 11:02:10;;;;;;;0.30;0.30;;;12.40;83.40;;;;;;5095929;28;20055;-76
2021/05/26 11:04:37;;;;;;;0.77;0.40;;;12.30;83.50;;;;;;5096239;28;20035;-76
2021/05/26 11:07:21;;;;;;;0.82;0.40;;;12.10;83.80;;;;;;5114572;28;20052;-76
2021/05/26 11:10:06;;;;;;;0.57;0.30;;;12.00;83.80;;;;;;5079065;28;20042;-76
2021/05/26 11:13:00;;;;;;;0.30;0.30;;;12.10;83.80;;;;;;5095863;28;20040;-76
2021/05/26 11:15:47;;;;;;;0.30;0.30;;;12.10;83.60;;;;;;5114624;28;20050;-77
2021/05/26 11:18:18;;;;;;;0.20;0.20;;;12.10;83.40;;;;;;5095573;28;20047;-76
2021/05/26 11:20:44;;;;;;;;;;;12.40;83.30;;;;;;5096609;28;20083;-76
2021/05/26 11:23:12;;;;;;;0.20;0.20;;;12.80;82.60;;;;;;5095728;28;20370;-77
2021/05/26 11:25:38;;;;;;;0.30;0.30;;;13.10;81.70;;;;;;5095579;28;20058;-77
2021/05/26 11:28:04;;;;;;;0.25;0.20;;;13.30;81.00;;;;;;5078934;28;20131;-76
2021/05/26 11:30:30;;;;;;;0.20;0.20;;;13.40;80.60;;;;;;5113694;28;20471;-78
2021/05/26 11:32:57;;;;;;;0.20;0.20;;;13.60;80.20;;;;;;5095466;28;20100;-76
2021/05/26 11:35:23;;;;;;;0.30;0.20;;;13.70;80.30;;;;;;5113684;28;20054;-77
2021/05/26 11:37:49;;;;;;;0.20;0.20;;;14.00;80.00;;;;;;5113730;28;20036;-77
2021/05/26 11:40:19;;;;;;;0.20;0.20;;;14.30;79.20;;;;;;5095476;28;20047;-76
2021/05/26 11:42:45;;;;;;;0.30;0.30;;;14.60;78.70;;;;;;5095592;28;20028;-76
2021/05/26 11:45:11;;;;;;;0.30;0.30;;;14.90;77.90;;;;;;5095461;28;20470;-77
2021/05/26 11:47:39;;;;;;;0.30;0.30;;;14.90;77.50;;;;;;5113501;28;20039;-75
2021/05/26 11:50:19;;;;;;;0.43;0.20;;;14.80;77.40;;;;;;5113773;28;20040;-78
2021/05/26 11:52:52;;;;;;;0.30;0.25;;;14.60;77.70;;;;;;5113900;28;20065;-75
2021/05/26 11:55:21;;;;;;;0.43;0.32;;;14.30;78.40;;;;;;5095332;28;20101;-76
2021/05/26 11:57:49;;;;;;;0.30;0.30;;;14.00;79.00;;;;;;5113365;28;20046;-74
2021/05/26 12:00:25;;;;;;;0.30;0.30;;;13.80;79.90;;;;;;5078383;28;20096;-75
2021/05/26 12:03:08;;;;;;;0.22;0.22;;;13.60;80.60;;;;;;5113655;28;20040;-74
2021/05/26 12:05:53;;;;;;;0.20;0.20;;;13.40;81.00;;;;;;5080113;28;20371;-75
2021/05/26 12:08:21;;;;;;;0.63;0.30;;;13.30;81.40;;;;;;5078481;28;20047;-75
2021/05/26 12:10:59;;;;;;;0.30;0.30;;;13.20;81.70;;;;;;5113671;28;20044;-76
2021/05/26 12:13:28;;;;;;;0.35;0.20;;;13.20;81.80;;;;;;5095585;28;20173;-75
2021/05/26 12:15:56;;;;;;;0.40;0.40;;;13.10;81.90;;;;;;5078162;28;20058;-75
2021/05/26 12:18:22;;;;;;;0.30;0.20;;;13.00;82.00;;;;;;5095067;28;20068;-75
2021/05/26 12:20:50;;;;;;;0.17;0.17;;;13.20;82.10;;;;;;5113548;28;20040;-75
2021/05/26 12:23:33;;;;;;;0.30;0.30;;;13.50;81.70;;;;;;5078145;28;20474;-76
2021/05/26 12:26:01;;;;;;;0.30;0.30;;;13.60;81.00;;;;;;5094677;28;20039;-76
2021/05/26 12:28:29;;;;;;;0.70;0.40;;;13.70;80.80;;;;;;5095293;28;20047;-77
2021/05/26 12:30:56;;;;;;;0.22;0.20;;;13.80;80.60;;;;;;5112766;28;20952;-76
2021/05/26 12:33:25;;;;;;;0.30;0.28;;;14.00;80.30;;;;;;5112799;28;20100;-77
2021/05/26 12:36:05;;;;;;;0.30;0.30;;;14.20;80.00;;;;;;5094610;28;20040;-75
2021/05/26 12:38:36;;;;;;;0.32;0.32;;;14.30;79.40;;;;;;5112732;28;20066;-76
2021/05/26 12:41:19;;;;;;;0.73;0.32;;;14.30;78.80;;;;;;5112715;28;20039;-74
2021/05/26 12:43:44;;;;;;;0.30;0.30;;;14.30;78.70;;;;;;5094869;28;20113;-76
2021/05/26 12:46:10;;;;;;;0.38;0.38;;;14.20;78.80;;;;;;5093493;28;20475;-76
2021/05/26 12:48:36;;;;;;;0.25;0.25;;;14.00;78.80;;;;;;5094415;28;20039;-75
2021/05/26 12:51:02;;;;;;;0.30;0.30;;;14.00;79.00;;;;;;5094984;28;20035;-75
2021/05/26 12:53:32;;;;;;;0.28;0.28;;;14.00;78.90;;;;;;5093515;28;20066;-75
2021/05/26 12:56:00;;;;;;;0.30;0.30;;;14.10;78.90;;;;;;5094370;28;20051;-75